sensor_id;sensor_type;location;lat;lon;timestamp;P1;durP1;ratioP1;P2;durP2;ratioP2
40453;SDS011;26160;51.858;4.398;2022-09-20T00:00:41;9.05;;;2.53;;
40453;SDS011;26160;51.858;4.398;2022-09-20T00:03:08;11.30;;;2.95;;
40453;SDS011;26160;51.858;4.398;2022-09-20T00:05:35;6.10;;;2.30;;
40453;SDS011;26160;51.858;4.398;2022-09-20T00:08:03;7.65;;;2.80;;
40453;SDS011;26160;51.858;4.398;2022-09-20T00:10:32;10.43;;;2.40;;
40453;SDS011;26160;51.858;4.398;2022-09-20T00:13:02;8.40;;;2.43;;
40453;SDS011;26160;51.858;4.398;2022-09-20T00:15:32;5.13;;;1.35;;
40453;SDS011;26160;51.858;4.398;2022-09-20T00:17:59;5.28;;;2.10;;
40453;SDS011;26160;51.858;4.398;2022-09-20T00:20:25;5.93;;;2.33;;
40453;SDS011;26160;51.858;4.398;2022-09-20T00:22:51;5.32;;;2.00;;
40453;SDS011;26160;51.858;4.398;2022-09-20T00:25:18;7.95;;;2.13;;
40453;SDS011;26160;51.858;4.398;2022-09-20T00:27:44;10.70;;;2.63;;
40453;SDS011;26160;51.858;4.398;2022-09-20T00:30:13;6.65;;;2.15;;
40453;SDS011;26160;51.858;4.398;2022-09-20T00:32:40;8.23;;;1.60;;
40453;SDS011;26160;51.858;4.398;2022-09-20T00:35:06;4.53;;;2.17;;
40453;SDS011;26160;51.858;4.398;2022-09-20T00:37:34;9.85;;;2.10;;
40453;SDS011;26160;51.858;4.398;2022-09-20T00:40:06;8.88;;;2.00;;
40453;SDS011;26160;51.858;4.398;2022-09-20T00:42:34;4.28;;;2.08;;
40453;SDS011;26160;51.858;4.398;2022-09-20T00:45:02;16.90;;;3.72;;
40453;SDS011;26160;51.858;4.398;2022-09-20T00:52:51;8.70;;;2.53;;
40453;SDS011;26160;51.858;4.398;2022-09-20T00:55:23;5.45;;;1.92;;
40453;SDS011;26160;51.858;4.398;2022-09-20T00:57:50;6.10;;;1.85;;
40453;SDS011;26160;51.858;4.398;2022-09-20T01:02:45;8.63;;;2.47;;
40453;SDS011;26160;51.858;4.398;2022-09-20T01:05:13;10.10;;;2.90;;
40453;SDS011;26160;51.858;4.398;2022-09-20T01:07:42;12.82;;;2.33;;
40453;SDS011;26160;51.858;4.398;2022-09-20T01:10:09;13.52;;;3.25;;
40453;SDS011;26160;51.858;4.398;2022-09-20T01:12:35;8.85;;;2.40;;
40453;SDS011;26160;51.858;4.398;2022-09-20T01:15:06;8.45;;;2.30;;
40453;SDS011;26160;51.858;4.398;2022-09-20T01:17:35;18.95;;;4.05;;
40453;SDS011;26160;51.858;4.398;2022-09-20T01:22:49;5.40;;;2.33;;
40453;SDS011;26160;51.858;4.398;2022-09-20T01:28:04;5.40;;;2.15;;
40453;SDS011;26160;51.858;4.398;2022-09-20T01:30:33;8.43;;;2.50;;
40453;SDS011;26160;51.858;4.398;2022-09-20T01:33:18;8.80;;;2.40;;
40453;SDS011;26160;51.858;4.398;2022-09-20T01:35:53;7.45;;;2.97;;
40453;SDS011;26160;51.858;4.398;2022-09-20T01:38:26;4.07;;;2.35;;
40453;SDS011;26160;51.858;4.398;2022-09-20T01:41:12;3.95;;;2.47;;
40453;SDS011;26160;51.858;4.398;2022-09-20T01:46:26;5.53;;;2.22;;
40453;SDS011;26160;51.858;4.398;2022-09-20T01:48:56;6.68;;;2.63;;
40453;SDS011;26160;51.858;4.398;2022-09-20T02:08:31;5.85;;;3.17;;
40453;SDS011;26160;51.858;4.398;2022-09-20T02:14:33;11.00;;;3.63;;
40453;SDS011;26160;51.858;4.398;2022-09-20T02:22:45;5.03;;;2.75;;
40453;SDS011;26160;51.858;4.398;2022-09-20T02:25:45;6.22;;;2.67;;
40453;SDS011;26160;51.858;4.398;2022-09-20T02:28:22;4.88;;;2.40;;
40453;SDS011;26160;51.858;4.398;2022-09-20T02:31:05;3.67;;;2.60;;
40453;SDS011;26160;51.858;4.398;2022-09-20T02:33:53;4.10;;;2.67;;
40453;SDS011;26160;51.858;4.398;2022-09-20T02:39:23;4.88;;;3.05;;
40453;SDS011;26160;51.858;4.398;2022-09-20T02:42:02;5.40;;;2.75;;
40453;SDS011;26160;51.858;4.398;2022-09-20T02:47:32;6.22;;;2.67;;
40453;SDS011;26160;51.858;4.398;2022-09-20T02:52:57;7.45;;;3.20;;
40453;SDS011;26160;51.858;4.398;2022-09-20T02:55:47;4.63;;;2.95;;
40453;SDS011;26160;51.858;4.398;2022-09-20T03:04:53;7.80;;;3.72;;
40453;SDS011;26160;51.858;4.398;2022-09-20T03:07:53;4.32;;;2.97;;
40453;SDS011;26160;51.858;4.398;2022-09-20T03:10:43;7.10;;;2.90;;
40453;SDS011;26160;51.858;4.398;2022-09-20T03:19:32;6.83;;;3.10;;
40453;SDS011;26160;51.858;4.398;2022-09-20T03:22:24;4.40;;;3.03;;
40453;SDS011;26160;51.858;4.398;2022-09-20T03:30:53;8.20;;;3.55;;
40453;SDS011;26160;51.858;4.398;2022-09-20T03:34:26;5.30;;;2.70;;
40453;SDS011;26160;51.858;4.398;2022-09-20T03:42:29;4.88;;;2.80;;
40453;SDS011;26160;51.858;4.398;2022-09-20T03:53:17;8.52;;;3.47;;
40453;SDS011;26160;51.858;4.398;2022-09-20T03:55:59;12.07;;;4.00;;
40453;SDS011;26160;51.858;4.398;2022-09-20T04:11:36;7.78;;;1.77;;
40453;SDS011;26160;51.858;4.398;2022-09-20T04:14:30;7.97;;;2.38;;
40453;SDS011;26160;51.858;4.398;2022-09-20T04:17:02;4.75;;;2.10;;
40453;SDS011;26160;51.858;4.398;2022-09-20T04:19:44;5.30;;;1.60;;
40453;SDS011;26160;51.858;4.398;2022-09-20T04:22:50;3.47;;;1.30;;
40453;SDS011;26160;51.858;4.398;2022-09-20T04:25:20;7.38;;;1.73;;
40453;SDS011;26160;51.858;4.398;2022-09-20T04:28:27;12.35;;;2.42;;
40453;SDS011;26160;51.858;4.398;2022-09-20T04:31:05;4.63;;;1.35;;
40453;SDS011;26160;51.858;4.398;2022-09-20T04:34:01;4.93;;;1.60;;
40453;SDS011;26160;51.858;4.398;2022-09-20T04:39:54;4.13;;;1.85;;
40453;SDS011;26160;51.858;4.398;2022-09-20T04:42:34;11.82;;;2.20;;
40453;SDS011;26160;51.858;4.398;2022-09-20T04:51:03;5.00;;;2.13;;
40453;SDS011;26160;51.858;4.398;2022-09-20T04:59:36;9.48;;;2.13;;
40453;SDS011;26160;51.858;4.398;2022-09-20T05:02:24;5.00;;;1.83;;
40453;SDS011;26160;51.858;4.398;2022-09-20T05:10:46;4.88;;;1.95;;
40453;SDS011;26160;51.858;4.398;2022-09-20T05:13:28;6.78;;;1.98;;
40453;SDS011;26160;51.858;4.398;2022-09-20T05:21:37;5.93;;;1.75;;
40453;SDS011;26160;51.858;4.398;2022-09-20T05:24:33;8.80;;;2.47;;
40453;SDS011;26160;51.858;4.398;2022-09-20T05:27:48;5.60;;;1.67;;
40453;SDS011;26160;51.858;4.398;2022-09-20T05:30:34;5.95;;;2.00;;
40453;SDS011;26160;51.858;4.398;2022-09-20T05:35:42;6.30;;;2.00;;
40453;SDS011;26160;51.858;4.398;2022-09-20T05:38:35;3.78;;;1.90;;
40453;SDS011;26160;51.858;4.398;2022-09-20T05:41:21;9.30;;;2.28;;
40453;SDS011;26160;51.858;4.398;2022-09-20T05:47:19;7.97;;;2.30;;
40453;SDS011;26160;51.858;4.398;2022-09-20T05:53:05;6.80;;;2.20;;
40453;SDS011;26160;51.858;4.398;2022-09-20T05:56:04;4.25;;;2.00;;
40453;SDS011;26160;51.858;4.398;2022-09-20T05:58:43;8.43;;;2.13;;
40453;SDS011;26160;51.858;4.398;2022-09-20T06:01:33;2.55;;;2.08;;
40453;SDS011;26160;51.858;4.398;2022-09-20T06:17:26;3.22;;;1.90;;
40453;SDS011;26160;51.858;4.398;2022-09-20T06:20:21;4.45;;;2.03;;
40453;SDS011;26160;51.858;4.398;2022-09-20T06:22:56;4.70;;;2.47;;
40453;SDS011;26160;51.858;4.398;2022-09-20T06:25:26;10.32;;;2.83;;
40453;SDS011;26160;51.858;4.398;2022-09-20T06:30:49;5.90;;;2.20;;
40453;SDS011;26160;51.858;4.398;2022-09-20T06:33:17;3.30;;;1.85;;
40453;SDS011;26160;51.858;4.398;2022-09-20T06:36:00;8.70;;;2.70;;
40453;SDS011;26160;51.858;4.398;2022-09-20T06:41:44;11.80;;;4.20;;
40453;SDS011;26160;51.858;4.398;2022-09-20T06:44:10;11.63;;;3.17;;
40453;SDS011;26160;51.858;4.398;2022-09-20T06:46:36;10.25;;;3.10;;
40453;SDS011;26160;51.858;4.398;2022-09-20T06:49:03;11.68;;;3.80;;
40453;SDS011;26160;51.858;4.398;2022-09-20T06:51:36;6.75;;;2.40;;
40453;SDS011;26160;51.858;4.398;2022-09-20T06:54:04;9.63;;;3.25;;
40453;SDS011;26160;51.858;4.398;2022-09-20T06:56:33;6.18;;;1.90;;
40453;SDS011;26160;51.858;4.398;2022-09-20T06:59:04;7.13;;;2.42;;
40453;SDS011;26160;51.858;4.398;2022-09-20T07:01:35;4.63;;;1.70;;
40453;SDS011;26160;51.858;4.398;2022-09-20T07:04:02;5.53;;;1.90;;
40453;SDS011;26160;51.858;4.398;2022-09-20T07:06:29;5.93;;;1.92;;
40453;SDS011;26160;51.858;4.398;2022-09-20T07:11:25;4.40;;;1.67;;
40453;SDS011;26160;51.858;4.398;2022-09-20T07:13:52;5.18;;;2.10;;
40453;SDS011;26160;51.858;4.398;2022-09-20T07:19:14;10.20;;;2.72;;
40453;SDS011;26160;51.858;4.398;2022-09-20T07:21:40;5.38;;;2.20;;
40453;SDS011;26160;51.858;4.398;2022-09-20T07:24:06;5.97;;;1.83;;
40453;SDS011;26160;51.858;4.398;2022-09-20T07:26:33;5.60;;;1.85;;
40453;SDS011;26160;51.858;4.398;2022-09-20T07:28:59;6.18;;;1.60;;
40453;SDS011;26160;51.858;4.398;2022-09-20T07:31:27;5.78;;;1.70;;
40453;SDS011;26160;51.858;4.398;2022-09-20T07:33:54;9.48;;;2.15;;
40453;SDS011;26160;51.858;4.398;2022-09-20T07:36:21;11.38;;;2.33;;
40453;SDS011;26160;51.858;4.398;2022-09-20T07:38:48;7.43;;;2.10;;
40453;SDS011;26160;51.858;4.398;2022-09-20T07:41:15;5.18;;;2.05;;
40453;SDS011;26160;51.858;4.398;2022-09-20T07:43:44;5.60;;;1.55;;
40453;SDS011;26160;51.858;4.398;2022-09-20T07:46:10;4.65;;;1.02;;
40453;SDS011;26160;51.858;4.398;2022-09-20T07:48:38;8.07;;;1.45;;
40453;SDS011;26160;51.858;4.398;2022-09-20T07:51:07;5.85;;;1.60;;
40453;SDS011;26160;51.858;4.398;2022-09-20T07:53:38;5.45;;;1.67;;
40453;SDS011;26160;51.858;4.398;2022-09-20T07:56:06;5.95;;;1.77;;
40453;SDS011;26160;51.858;4.398;2022-09-20T07:58:35;10.10;;;2.30;;
40453;SDS011;26160;51.858;4.398;2022-09-20T08:01:08;7.38;;;1.70;;
40453;SDS011;26160;51.858;4.398;2022-09-20T08:03:37;7.13;;;1.45;;
40453;SDS011;26160;51.858;4.398;2022-09-20T08:06:07;6.22;;;1.90;;
40453;SDS011;26160;51.858;4.398;2022-09-20T08:08:36;4.60;;;1.65;;
40453;SDS011;26160;51.858;4.398;2022-09-20T08:13:39;5.80;;;1.60;;
40453;SDS011;26160;51.858;4.398;2022-09-20T08:16:10;8.95;;;1.70;;
40453;SDS011;26160;51.858;4.398;2022-09-20T08:18:39;5.00;;;1.48;;
40453;SDS011;26160;51.858;4.398;2022-09-20T08:21:11;4.63;;;1.67;;
40453;SDS011;26160;51.858;4.398;2022-09-20T08:23:38;5.35;;;1.52;;
40453;SDS011;26160;51.858;4.398;2022-09-20T08:26:08;8.23;;;1.80;;
40453;SDS011;26160;51.858;4.398;2022-09-20T08:28:37;3.40;;;1.08;;
40453;SDS011;26160;51.858;4.398;2022-09-20T08:31:08;10.30;;;2.05;;
40453;SDS011;26160;51.858;4.398;2022-09-20T08:33:37;4.18;;;1.60;;
40453;SDS011;26160;51.858;4.398;2022-09-20T08:36:05;4.28;;;1.33;;
40453;SDS011;26160;51.858;4.398;2022-09-20T08:38:32;11.05;;;1.67;;
40453;SDS011;26160;51.858;4.398;2022-09-20T08:41:01;5.00;;;1.27;;
40453;SDS011;26160;51.858;4.398;2022-09-20T08:43:33;7.35;;;1.90;;
40453;SDS011;26160;51.858;4.398;2022-09-20T08:46:03;4.22;;;1.20;;
40453;SDS011;26160;51.858;4.398;2022-09-20T08:48:34;4.32;;;1.27;;
40453;SDS011;26160;51.858;4.398;2022-09-20T08:51:00;5.57;;;1.27;;
40453;SDS011;26160;51.858;4.398;2022-09-20T08:53:31;2.95;;;0.80;;
40453;SDS011;26160;51.858;4.398;2022-09-20T08:55:58;7.40;;;1.88;;
40453;SDS011;26160;51.858;4.398;2022-09-20T08:58:25;4.07;;;1.20;;
40453;SDS011;26160;51.858;4.398;2022-09-20T09:00:52;5.75;;;1.48;;
40453;SDS011;26160;51.858;4.398;2022-09-20T09:03:23;4.93;;;1.02;;
40453;SDS011;26160;51.858;4.398;2022-09-20T09:05:51;4.55;;;0.85;;
40453;SDS011;26160;51.858;4.398;2022-09-20T09:08:20;7.95;;;1.65;;
40453;SDS011;26160;51.858;4.398;2022-09-20T09:10:54;4.47;;;1.05;;
40453;SDS011;26160;51.858;4.398;2022-09-20T09:14:17;3.10;;;0.80;;
40453;SDS011;26160;51.858;4.398;2022-09-20T09:16:23;5.05;;;0.90;;
40453;SDS011;26160;51.858;4.398;2022-09-20T09:18:51;4.00;;;0.80;;
40453;SDS011;26160;51.858;4.398;2022-09-20T09:21:19;4.45;;;0.70;;
40453;SDS011;26160;51.858;4.398;2022-09-20T09:26:36;3.58;;;0.80;;
40453;SDS011;26160;51.858;4.398;2022-09-20T09:29:15;3.67;;;0.75;;
40453;SDS011;26160;51.858;4.398;2022-09-20T09:31:41;5.30;;;1.20;;
40453;SDS011;26160;51.858;4.398;2022-09-20T09:34:31;4.38;;;1.02;;
40453;SDS011;26160;51.858;4.398;2022-09-20T09:36:59;6.60;;;1.02;;
40453;SDS011;26160;51.858;4.398;2022-09-20T09:39:29;6.60;;;0.90;;
40453;SDS011;26160;51.858;4.398;2022-09-20T09:41:58;5.20;;;0.85;;
40453;SDS011;26160;51.858;4.398;2022-09-20T09:44:26;3.97;;;1.00;;
40453;SDS011;26160;51.858;4.398;2022-09-20T09:46:54;3.08;;;0.82;;
40453;SDS011;26160;51.858;4.398;2022-09-20T09:49:22;3.63;;;1.00;;
40453;SDS011;26160;51.858;4.398;2022-09-20T09:54:58;7.75;;;0.80;;
40453;SDS011;26160;51.858;4.398;2022-09-20T09:57:42;4.85;;;0.77;;
40453;SDS011;26160;51.858;4.398;2022-09-20T10:00:20;4.43;;;1.00;;
40453;SDS011;26160;51.858;4.398;2022-09-20T10:05:43;14.00;;;2.47;;
40453;SDS011;26160;51.858;4.398;2022-09-20T10:08:32;3.25;;;0.70;;
40453;SDS011;26160;51.858;4.398;2022-09-20T10:11:22;10.05;;;0.80;;
40453;SDS011;26160;51.858;4.398;2022-09-20T10:22:36;5.00;;;1.00;;
40453;SDS011;26160;51.858;4.398;2022-09-20T10:25:17;4.40;;;0.80;;
40453;SDS011;26160;51.858;4.398;2022-09-20T10:28:10;3.33;;;0.75;;
40453;SDS011;26160;51.858;4.398;2022-09-20T10:33:31;5.03;;;0.85;;
40453;SDS011;26160;51.858;4.398;2022-09-20T10:38:44;2.88;;;0.70;;
40453;SDS011;26160;51.858;4.398;2022-09-20T10:47:24;5.20;;;1.00;;
40453;SDS011;26160;51.858;4.398;2022-09-20T10:50:01;3.17;;;0.90;;
40453;SDS011;26160;51.858;4.398;2022-09-20T10:52:51;3.28;;;0.73;;
40453;SDS011;26160;51.858;4.398;2022-09-20T11:03:36;5.18;;;0.60;;
40453;SDS011;26160;51.858;4.398;2022-09-20T11:06:14;4.03;;;0.80;;
40453;SDS011;26160;51.858;4.398;2022-09-20T11:08:48;4.20;;;0.70;;
40453;SDS011;26160;51.858;4.398;2022-09-20T11:11:22;3.38;;;0.60;;
40453;SDS011;26160;51.858;4.398;2022-09-20T11:25:54;4.18;;;0.75;;
40453;SDS011;26160;51.858;4.398;2022-09-20T11:28:30;8.80;;;1.27;;
40453;SDS011;26160;51.858;4.398;2022-09-20T11:33:53;3.45;;;1.05;;
40453;SDS011;26160;51.858;4.398;2022-09-20T11:36:35;2.78;;;0.70;;
40453;SDS011;26160;51.858;4.398;2022-09-20T11:39:54;4.70;;;1.20;;
40453;SDS011;26160;51.858;4.398;2022-09-20T11:42:00;6.45;;;1.80;;
40453;SDS011;26160;51.858;4.398;2022-09-20T11:44:39;4.72;;;1.30;;
40453;SDS011;26160;51.858;4.398;2022-09-20T11:47:12;4.05;;;1.30;;
40453;SDS011;26160;51.858;4.398;2022-09-20T11:55:35;2.83;;;1.00;;
40453;SDS011;26160;51.858;4.398;2022-09-20T11:58:09;2.03;;;0.75;;
40453;SDS011;26160;51.858;4.398;2022-09-20T12:00:39;5.57;;;1.10;;
40453;SDS011;26160;51.858;4.398;2022-09-20T12:03:53;4.53;;;0.88;;
40453;SDS011;26160;51.858;4.398;2022-09-20T12:06:06;3.45;;;0.60;;
40453;SDS011;26160;51.858;4.398;2022-09-20T12:08:48;4.97;;;0.80;;
40453;SDS011;26160;51.858;4.398;2022-09-20T12:11:15;2.53;;;0.70;;
40453;SDS011;26160;51.858;4.398;2022-09-20T12:14:05;2.30;;;0.73;;
40453;SDS011;26160;51.858;4.398;2022-09-20T12:16:46;4.25;;;0.80;;
40453;SDS011;26160;51.858;4.398;2022-09-20T12:19:14;3.50;;;0.75;;
40453;SDS011;26160;51.858;4.398;2022-09-20T12:24:33;6.63;;;0.95;;
40453;SDS011;26160;51.858;4.398;2022-09-20T12:30:04;2.53;;;0.60;;
40453;SDS011;26160;51.858;4.398;2022-09-20T12:32:41;3.50;;;0.85;;
40453;SDS011;26160;51.858;4.398;2022-09-20T12:43:36;3.75;;;0.60;;
40453;SDS011;26160;51.858;4.398;2022-09-20T12:46:22;2.45;;;0.50;;
40453;SDS011;26160;51.858;4.398;2022-09-20T12:49:09;7.38;;;0.60;;
40453;SDS011;26160;51.858;4.398;2022-09-20T12:52:04;2.30;;;0.52;;
40453;SDS011;26160;51.858;4.398;2022-09-20T12:55:03;1.80;;;0.47;;
40453;SDS011;26160;51.858;4.398;2022-09-20T12:57:30;3.55;;;0.60;;
40453;SDS011;26160;51.858;4.398;2022-09-20T12:59:58;1.42;;;0.50;;
40453;SDS011;26160;51.858;4.398;2022-09-20T13:02:53;3.47;;;0.57;;
40453;SDS011;26160;51.858;4.398;2022-09-20T13:05:30;2.55;;;0.55;;
40453;SDS011;26160;51.858;4.398;2022-09-20T13:08:11;3.17;;;0.77;;
40453;SDS011;26160;51.858;4.398;2022-09-20T13:13:38;5.05;;;0.85;;
40453;SDS011;26160;51.858;4.398;2022-09-20T13:19:18;4.28;;;0.80;;
40453;SDS011;26160;51.858;4.398;2022-09-20T13:21:50;1.88;;;0.95;;
40453;SDS011;26160;51.858;4.398;2022-09-20T13:24:17;5.20;;;0.85;;
40453;SDS011;26160;51.858;4.398;2022-09-20T13:26:45;3.30;;;0.60;;
40453;SDS011;26160;51.858;4.398;2022-09-20T13:29:21;4.55;;;0.73;;
40453;SDS011;26160;51.858;4.398;2022-09-20T13:32:28;4.15;;;0.82;;
40453;SDS011;26160;51.858;4.398;2022-09-20T13:40:17;3.60;;;0.88;;
40453;SDS011;26160;51.858;4.398;2022-09-20T13:42:44;2.63;;;0.50;;
40453;SDS011;26160;51.858;4.398;2022-09-20T13:45:12;5.75;;;0.60;;
40453;SDS011;26160;51.858;4.398;2022-09-20T13:47:41;7.18;;;0.90;;
40453;SDS011;26160;51.858;4.398;2022-09-20T13:50:27;3.33;;;0.70;;
40453;SDS011;26160;51.858;4.398;2022-09-20T13:52:58;2.78;;;0.50;;
40453;SDS011;26160;51.858;4.398;2022-09-20T13:55:33;4.55;;;0.90;;
40453;SDS011;26160;51.858;4.398;2022-09-20T13:58:24;6.82;;;0.70;;
40453;SDS011;26160;51.858;4.398;2022-09-20T14:03:31;6.90;;;1.17;;
40453;SDS011;26160;51.858;4.398;2022-09-20T14:06:00;1.63;;;0.63;;
40453;SDS011;26160;51.858;4.398;2022-09-20T14:08:48;4.07;;;0.60;;
40453;SDS011;26160;51.858;4.398;2022-09-20T14:11:22;2.47;;;0.57;;
40453;SDS011;26160;51.858;4.398;2022-09-20T14:13:53;2.35;;;0.50;;
40453;SDS011;26160;51.858;4.398;2022-09-20T14:16:23;1.95;;;0.45;;
40453;SDS011;26160;51.858;4.398;2022-09-20T14:18:54;4.72;;;0.50;;
40453;SDS011;26160;51.858;4.398;2022-09-20T14:21:23;2.17;;;0.63;;
40453;SDS011;26160;51.858;4.398;2022-09-20T14:23:53;2.65;;;0.40;;
40453;SDS011;26160;51.858;4.398;2022-09-20T14:26:33;1.17;;;0.47;;
40453;SDS011;26160;51.858;4.398;2022-09-20T14:31:59;2.20;;;0.52;;
40453;SDS011;26160;51.858;4.398;2022-09-20T14:34:36;6.40;;;1.27;;
40453;SDS011;26160;51.858;4.398;2022-09-20T14:37:05;4.25;;;0.50;;
40453;SDS011;26160;51.858;4.398;2022-09-20T14:39:52;2.63;;;0.50;;
40453;SDS011;26160;51.858;4.398;2022-09-20T14:45:00;1.25;;;0.50;;
40453;SDS011;26160;51.858;4.398;2022-09-20T14:47:48;1.30;;;0.40;;
40453;SDS011;26160;51.858;4.398;2022-09-20T14:50:23;3.33;;;0.80;;
40453;SDS011;26160;51.858;4.398;2022-09-20T14:55:36;2.88;;;0.52;;
40453;SDS011;26160;51.858;4.398;2022-09-20T14:58:06;2.97;;;0.68;;
40453;SDS011;26160;51.858;4.398;2022-09-20T15:03:22;3.47;;;0.60;;
40453;SDS011;26160;51.858;4.398;2022-09-20T15:05:51;1.38;;;0.43;;
40453;SDS011;26160;51.858;4.398;2022-09-20T15:08:17;4.00;;;0.50;;
40453;SDS011;26160;51.858;4.398;2022-09-20T15:10:44;1.90;;;0.60;;
40453;SDS011;26160;51.858;4.398;2022-09-20T15:13:11;1.67;;;0.52;;
40453;SDS011;26160;51.858;4.398;2022-09-20T15:15:38;6.47;;;1.40;;
40453;SDS011;26160;51.858;4.398;2022-09-20T15:18:05;4.53;;;0.73;;
40453;SDS011;26160;51.858;4.398;2022-09-20T15:20:46;2.30;;;0.60;;
40453;SDS011;26160;51.858;4.398;2022-09-20T15:23:13;6.47;;;0.88;;
40453;SDS011;26160;51.858;4.398;2022-09-20T15:25:40;2.42;;;0.40;;
40453;SDS011;26160;51.858;4.398;2022-09-20T15:28:07;2.58;;;0.47;;
40453;SDS011;26160;51.858;4.398;2022-09-20T15:30:38;1.38;;;0.52;;
40453;SDS011;26160;51.858;4.398;2022-09-20T15:33:04;1.13;;;0.50;;
40453;SDS011;26160;51.858;4.398;2022-09-20T15:35:31;1.58;;;0.40;;
40453;SDS011;26160;51.858;4.398;2022-09-20T15:37:57;1.70;;;0.50;;
40453;SDS011;26160;51.858;4.398;2022-09-20T15:40:23;2.83;;;0.65;;
40453;SDS011;26160;51.858;4.398;2022-09-20T15:42:53;1.65;;;0.40;;
40453;SDS011;26160;51.858;4.398;2022-09-20T15:45:24;5.47;;;0.77;;
40453;SDS011;26160;51.858;4.398;2022-09-20T15:47:52;2.05;;;0.50;;
40453;SDS011;26160;51.858;4.398;2022-09-20T15:50:23;3.40;;;0.60;;
40453;SDS011;26160;51.858;4.398;2022-09-20T15:52:49;4.25;;;0.60;;
40453;SDS011;26160;51.858;4.398;2022-09-20T15:55:16;2.33;;;0.43;;
40453;SDS011;26160;51.858;4.398;2022-09-20T15:57:43;5.03;;;0.70;;
40453;SDS011;26160;51.858;4.398;2022-09-20T16:00:10;3.75;;;0.68;;
40453;SDS011;26160;51.858;4.398;2022-09-20T16:02:36;2.80;;;0.75;;
40453;SDS011;26160;51.858;4.398;2022-09-20T16:05:03;1.83;;;0.40;;
40453;SDS011;26160;51.858;4.398;2022-09-20T16:07:30;7.72;;;1.08;;
40453;SDS011;26160;51.858;4.398;2022-09-20T16:09:56;4.82;;;0.60;;
40453;SDS011;26160;51.858;4.398;2022-09-20T16:12:23;1.77;;;0.45;;
40453;SDS011;26160;51.858;4.398;2022-09-20T16:14:49;5.65;;;1.33;;
40453;SDS011;26160;51.858;4.398;2022-09-20T16:17:16;5.55;;;0.63;;
40453;SDS011;26160;51.858;4.398;2022-09-20T16:19:42;4.15;;;0.70;;
40453;SDS011;26160;51.858;4.398;2022-09-20T16:22:13;4.50;;;0.52;;
40453;SDS011;26160;51.858;4.398;2022-09-20T16:24:40;1.10;;;0.45;;
40453;SDS011;26160;51.858;4.398;2022-09-20T16:27:06;4.53;;;0.80;;
40453;SDS011;26160;51.858;4.398;2022-09-20T16:29:34;7.30;;;0.70;;
40453;SDS011;26160;51.858;4.398;2022-09-20T16:32:00;5.82;;;0.75;;
40453;SDS011;26160;51.858;4.398;2022-09-20T16:34:29;2.53;;;1.08;;
40453;SDS011;26160;51.858;4.398;2022-09-20T16:37:04;4.28;;;1.00;;
40453;SDS011;26160;51.858;4.398;2022-09-20T16:39:34;2.90;;;0.60;;
40453;SDS011;26160;51.858;4.398;2022-09-20T16:42:01;7.03;;;0.70;;
40453;SDS011;26160;51.858;4.398;2022-09-20T16:44:30;4.47;;;0.57;;
40453;SDS011;26160;51.858;4.398;2022-09-20T16:46:57;2.17;;;0.43;;
40453;SDS011;26160;51.858;4.398;2022-09-20T16:49:24;7.03;;;0.73;;
40453;SDS011;26160;51.858;4.398;2022-09-20T16:51:54;5.65;;;0.70;;
40453;SDS011;26160;51.858;4.398;2022-09-20T16:54:20;2.88;;;0.70;;
40453;SDS011;26160;51.858;4.398;2022-09-20T16:56:47;1.77;;;0.85;;
40453;SDS011;26160;51.858;4.398;2022-09-20T16:59:16;7.13;;;0.80;;
40453;SDS011;26160;51.858;4.398;2022-09-20T17:01:45;1.42;;;0.52;;
40453;SDS011;26160;51.858;4.398;2022-09-20T17:04:12;5.32;;;0.73;;
40453;SDS011;26160;51.858;4.398;2022-09-20T17:06:39;6.50;;;0.80;;
40453;SDS011;26160;51.858;4.398;2022-09-20T17:09:07;2.67;;;0.85;;
40453;SDS011;26160;51.858;4.398;2022-09-20T17:11:35;1.73;;;0.50;;
40453;SDS011;26160;51.858;4.398;2022-09-20T17:14:02;3.50;;;0.88;;
40453;SDS011;26160;51.858;4.398;2022-09-20T17:16:30;3.65;;;0.77;;
40453;SDS011;26160;51.858;4.398;2022-09-20T17:18:59;3.83;;;0.65;;
40453;SDS011;26160;51.858;4.398;2022-09-20T17:21:28;4.05;;;0.90;;
40453;SDS011;26160;51.858;4.398;2022-09-20T17:23:56;4.25;;;0.60;;
40453;SDS011;26160;51.858;4.398;2022-09-20T17:26:24;4.30;;;0.73;;
40453;SDS011;26160;51.858;4.398;2022-09-20T17:29:01;2.42;;;0.70;;
40453;SDS011;26160;51.858;4.398;2022-09-20T17:31:31;5.13;;;0.73;;
40453;SDS011;26160;51.858;4.398;2022-09-20T17:34:00;1.67;;;0.80;;
40453;SDS011;26160;51.858;4.398;2022-09-20T17:36:30;3.75;;;0.95;;
40453;SDS011;26160;51.858;4.398;2022-09-20T17:38:58;11.02;;;2.33;;
40453;SDS011;26160;51.858;4.398;2022-09-20T17:41:26;6.28;;;1.80;;
40453;SDS011;26160;51.858;4.398;2022-09-20T17:43:53;9.20;;;2.45;;
40453;SDS011;26160;51.858;4.398;2022-09-20T17:46:22;13.32;;;4.40;;
40453;SDS011;26160;51.858;4.398;2022-09-20T17:48:56;8.18;;;3.53;;
40453;SDS011;26160;51.858;4.398;2022-09-20T17:51:26;8.15;;;2.30;;
40453;SDS011;26160;51.858;4.398;2022-09-20T17:53:54;1.83;;;0.95;;
40453;SDS011;26160;51.858;4.398;2022-09-20T17:56:20;5.03;;;1.20;;
40453;SDS011;26160;51.858;4.398;2022-09-20T17:59:00;3.20;;;0.90;;
40453;SDS011;26160;51.858;4.398;2022-09-20T18:01:28;3.20;;;1.10;;
40453;SDS011;26160;51.858;4.398;2022-09-20T18:03:55;5.15;;;1.05;;
40453;SDS011;26160;51.858;4.398;2022-09-20T18:06:28;3.47;;;0.80;;
40453;SDS011;26160;51.858;4.398;2022-09-20T18:09:10;11.57;;;0.85;;
40453;SDS011;26160;51.858;4.398;2022-09-20T18:11:43;5.43;;;0.82;;
40453;SDS011;26160;51.858;4.398;2022-09-20T18:14:15;3.50;;;0.80;;
40453;SDS011;26160;51.858;4.398;2022-09-20T18:16:42;3.33;;;0.75;;
40453;SDS011;26160;51.858;4.398;2022-09-20T18:19:09;3.50;;;0.80;;
40453;SDS011;26160;51.858;4.398;2022-09-20T18:21:35;4.13;;;0.88;;
40453;SDS011;26160;51.858;4.398;2022-09-20T18:24:06;5.55;;;1.23;;
40453;SDS011;26160;51.858;4.398;2022-09-20T18:26:34;7.90;;;1.00;;
40453;SDS011;26160;51.858;4.398;2022-09-20T18:29:02;8.10;;;1.10;;
40453;SDS011;26160;51.858;4.398;2022-09-20T18:31:31;3.75;;;1.50;;
40453;SDS011;26160;51.858;4.398;2022-09-20T18:34:01;4.72;;;1.42;;
40453;SDS011;26160;51.858;4.398;2022-09-20T18:36:29;2.78;;;0.90;;
40453;SDS011;26160;51.858;4.398;2022-09-20T18:38:56;4.85;;;0.88;;
40453;SDS011;26160;51.858;4.398;2022-09-20T18:41:30;3.83;;;0.70;;
40453;SDS011;26160;51.858;4.398;2022-09-20T18:43:58;4.35;;;1.00;;
40453;SDS011;26160;51.858;4.398;2022-09-20T18:46:25;4.30;;;1.00;;
40453;SDS011;26160;51.858;4.398;2022-09-20T18:48:53;4.95;;;0.80;;
40453;SDS011;26160;51.858;4.398;2022-09-20T18:51:24;6.35;;;1.00;;
40453;SDS011;26160;51.858;4.398;2022-09-20T18:53:56;2.75;;;0.90;;
40453;SDS011;26160;51.858;4.398;2022-09-20T18:56:24;3.22;;;0.65;;
40453;SDS011;26160;51.858;4.398;2022-09-20T18:58:58;2.50;;;1.13;;
40453;SDS011;26160;51.858;4.398;2022-09-20T19:01:37;3.03;;;0.95;;
40453;SDS011;26160;51.858;4.398;2022-09-20T19:04:10;5.38;;;1.55;;
40453;SDS011;26160;51.858;4.398;2022-09-20T19:12:43;3.80;;;1.40;;
40453;SDS011;26160;51.858;4.398;2022-09-20T19:15:20;3.40;;;2.20;;
40453;SDS011;26160;51.858;4.398;2022-09-20T19:20:36;7.00;;;3.25;;
40453;SDS011;26160;51.858;4.398;2022-09-20T19:26:19;6.15;;;2.40;;
40453;SDS011;26160;51.858;4.398;2022-09-20T19:28:51;7.75;;;2.25;;
40453;SDS011;26160;51.858;4.398;2022-09-20T19:31:23;4.80;;;2.08;;
40453;SDS011;26160;51.858;4.398;2022-09-20T19:33:58;6.90;;;2.22;;
40453;SDS011;26160;51.858;4.398;2022-09-20T19:36:38;6.82;;;2.28;;
40453;SDS011;26160;51.858;4.398;2022-09-20T19:44:26;7.60;;;4.47;;
40453;SDS011;26160;51.858;4.398;2022-09-20T19:47:06;9.35;;;5.30;;
40453;SDS011;26160;51.858;4.398;2022-09-20T19:49:53;7.88;;;4.43;;
40453;SDS011;26160;51.858;4.398;2022-09-20T19:52:23;8.05;;;4.30;;
40453;SDS011;26160;51.858;4.398;2022-09-20T19:54:49;9.23;;;4.05;;